Münster Osnabrück Airport

EDDG · North Rhine-Westphalia, Germany

METAR history EDDG · Münster Osnabrück Airport

Below you see METARs of the last few days. Select a year to browse through older METARs, from the year 2007 onwards.

November 26, 2022

Time Code Weather Temp. Visibility Ceiling Wind METAR/SPECI
16:20
V
8 °C 10 km+ - 140° 140° 3 kt METAR EDDG 261520Z AUTO 14003KT CAVOK 08/07 Q1028 NOSIG
15:50
V
9 °C 10 km+ - 140° 140° 4 kt METAR EDDG 261450Z AUTO 14004KT 110V170 CAVOK 09/07 Q1028 NOSIG
15:20
V
9 °C 10 km+ - 170° 170° 4 kt METAR EDDG 261420Z AUTO 17004KT CAVOK 09/07 Q1028 NOSIG
14:50
V
9 °C 10 km+ - 180° 180° 5 kt METAR EDDG 261350Z AUTO 18005KT 150V210 CAVOK 09/07 Q1028 NOSIG
14:20
V
9 °C 10 km+ - 180° 180° 5 kt METAR EDDG 261320Z AUTO 18005KT 150V220 9999 FEW009 09/07 Q1029 NOSIG
13:50
V
9 °C 10 km+ - 190° 190° 5 kt METAR EDDG 261250Z AUTO 19005KT 150V230 9999 SCT009 09/07 Q1029 TEMPO BKN009
13:20
I
8 °C 10 km+ 800 ft 180° 180° 5 kt METAR EDDG 261220Z AUTO 18005KT 150V220 9999 BKN008 08/07 Q1029 BECMG BKN010
12:50
I
8 °C 7 km 600 ft 180° 180° 4 kt METAR EDDG 261150Z AUTO 18004KT 150V210 7000 BKN006 08/07 Q1029 BECMG BKN010
12:20
I
7 °C 5 km 500 ft 190° 190° 5 kt METAR EDDG 261120Z AUTO 19005KT 140V230 5000 BR BKN005 07/06 Q1029 BECMG BKN010
11:50
L
7 °C 3.9 km 300 ft 200° 200° 5 kt METAR EDDG 261050Z AUTO 20005KT 170V250 3900 BR OVC003 07/06 Q1029 BECMG 8000 BKN005
11:20
L
6 °C 3.1 km 300 ft 210° 210° 7 kt METAR EDDG 261020Z AUTO 21007KT 180V240 3100 BR OVC003 06/06 Q1029 BECMG 8000
10:50
L
6 °C 2.1 km 200 ft 200° 200° 6 kt METAR EDDG 260950Z AUTO 20006KT 160V240 2100 BR OVC002 06/06 Q1029 BECMG 3000 BR
10:20
L
6 °C 900 m 100 ft 190° 190° 4 kt METAR EDDG 260920Z AUTO 19004KT 150V220 1000 0900 R25/1600U BCFG OVC001 06/05 Q1029 BECMG 3000 BR
09:50
L
5 °C 1.2 km 100 ft 210° 210° 4 kt METAR EDDG 260850Z AUTO 21004KT 180V260 1200 R25/1800U BR OVC001 05/05 Q1029 BECMG 3000 BR
09:20
L
5 °C 650 m 100 ft 180° 180° 4 kt METAR EDDG 260820Z AUTO 18004KT 140V210 0700 0650 R25/0900N FG BKN001 05/05 Q1029 BECMG 0800 FG
08:50
L
5 °C 550 m 300 ft 170° 170° 4 kt METAR EDDG 260750Z AUTO 17004KT 140V210 0650 0550 R25/0900N FG VV003 05/05 Q1028 BECMG 1500 BCFG
08:20
L
5 °C 550 m 300 ft 150° 150° 4 kt METAR EDDG 260720Z AUTO 15004KT 0650 0550 R25/0750N FG VV003 05/05 Q1028 BECMG 1500 BR
07:50
L
5 °C 550 m 300 ft 180° 180° 4 kt METAR EDDG 260650Z AUTO 18004KT 140V210 0550 R25/0700N FG VV003 05/05 Q1028 BECMG 1500 BR
07:20
L
5 °C 400 m 300 ft 190° 190° 3 kt METAR EDDG 260620Z AUTO 19003KT 150V220 0450 0400 R25/0650N FG VV003 05/05 Q1028 BECMG 1500 BR
06:50
L
4 °C 500 m 300 ft 170° 170° 3 kt METAR EDDG 260550Z AUTO 17003KT 120V210 0500 R25/0650N FG VV003 04/04 Q1027 BECMG 1500 BR
06:20
L
4 °C 350 m 300 ft 160° 160° 3 kt METAR EDDG 260520Z AUTO 16003KT 0400 0350 R25/0650U FG VV003 04/04 Q1027 BECMG 1500 BR
05:50
L
3 °C 300 m 300 ft Var Var 2 kt METAR EDDG 260450Z AUTO VRB02KT 0300 R25/0400N FG VV003 03/03 Q1027 NOSIG
05:20
L
2 °C 250 m 200 ft Var Var 2 kt METAR EDDG 260420Z AUTO VRB02KT 0250 R25/0275N FG VV002 02/02 Q1026 TEMPO 0700
04:50
L
2 °C 250 m 200 ft Var Var 2 kt METAR EDDG 260350Z AUTO VRB02KT 0250 R25/0375N FG VV002 02/02 Q1026 NOSIG
04:20
L
1 °C 400 m - Var Var 2 kt METAR EDDG 260320Z AUTO VRB02KT 0450 0400 R25/0550N FG NCD 01/00 Q1026 NOSIG
03:50
L
0 °C 500 m - 090° 090° 1 kt METAR EDDG 260250Z AUTO 09001KT 0600 0500 R25/0550N FG NCD 00/M00 Q1026 NOSIG
03:20
L
1 °C 400 m - 090° 090° 1 kt METAR EDDG 260220Z AUTO 09001KT 0550 0400 R25/0700N FG NCD 01/00 Q1026 NOSIG
02:50
L
2 °C 350 m - Var Var 1 kt METAR EDDG 260150Z AUTO VRB01KT 0450 0350 R25/0750U FG SCT029 02/02 Q1026 NOSIG
02:20
L
2 °C 500 m - 210° 210° 2 kt METAR EDDG 260120Z AUTO 21002KT 0500 R25/0700U FG FEW032 02/02 Q1025 NOSIG
01:50
L
3 °C 400 m - 210° 210° 2 kt METAR EDDG 260050Z AUTO 21002KT 0450 0400 R25/0500N FG NCD 03/02 Q1025 TEMPO 2000 BCFG
01:20
L
4 °C 500 m - 210° 210° 3 kt METAR EDDG 260020Z AUTO 21003KT 0550 0500 R25/0500D FG NCD 04/04 Q1024 TEMPO 2000 BCFG
00:50
L
4 °C 500 m - 230° 230° 3 kt METAR EDDG 252350Z AUTO 23003KT 0650 0500 R25/0550N FG FEW028 04/03 Q1024 TEMPO 2000 BCFG
00:20
L
4 °C 400 m - 230° 230° 3 kt METAR EDDG 252320Z AUTO 23003KT 0500 0400 R25/0700N FG SCT027 04/04 Q1024 TEMPO 1200 BCFG

November 25, 2022

Time Code Weather Temp. Visibility Ceiling Wind METAR/SPECI
23:50
L
3 °C 450 m - 230° 230° 3 kt METAR EDDG 252250Z AUTO 23003KT 0500 0450 R25/0600N FG NCD 03/03 Q1024 TEMPO 2000 BCFG
23:20
L
5 °C 700 m - 210° 210° 3 kt METAR EDDG 252220Z AUTO 21003KT 0700 R25/1200D FG NCD 05/05 Q1023 TEMPO 0400 FG
22:50
L
4 °C 550 m - 230° 230° 3 kt METAR EDDG 252150Z AUTO 23003KT 0700 0550 R25/1000D FG NCD 04/04 Q1023 TEMPO 0400 FG
22:20
M
6 °C 7 km - 200° 200° 2 kt METAR EDDG 252120Z AUTO 20002KT 7000 NCD 06/06 Q1023 TEMPO 4000 BCFG
21:50
V
6 °C 10 km+ - 250° 250° 3 kt METAR EDDG 252050Z AUTO 25003KT CAVOK 06/05 Q1022
21:20
V
6 °C 10 km+ - 250° 250° 4 kt METAR EDDG 252020Z AUTO 25004KT 9999 FEW020 06/05 Q1022 NOSIG
20:50
V
6 °C 10 km+ - 250° 250° 4 kt METAR EDDG 251950Z AUTO 25004KT CAVOK 06/06 Q1021 NOSIG
20:20
V
7 °C 10 km+ - 260° 260° 4 kt METAR EDDG 251920Z AUTO 26004KT CAVOK 07/06 Q1021 NOSIG
19:50
V
8 °C 10 km+ - 230° 230° 6 kt METAR EDDG 251850Z AUTO 23006KT 9999 FEW017 08/06 Q1020 NOSIG
19:20
V
8 °C 10 km+ 3,200 ft 240° 240° 5 kt METAR EDDG 251820Z AUTO 24005KT 9999 SCT021 BKN032 08/06 Q1020 NOSIG
18:50
V
9 °C 10 km+ - 230° 230° 5 kt METAR EDDG 251750Z AUTO 23005KT 210V270 9999 FEW029 SCT049 09/07 Q1019 NOSIG
18:20
V
9 °C 10 km+ - 240° 240° 5 kt METAR EDDG 251720Z AUTO 24005KT CAVOK 09/06 Q1019 NOSIG
17:50
V
9 °C 10 km+ - 230° 230° 5 kt METAR EDDG 251650Z AUTO 23005KT 9999 VCSH FEW020 SCT042 FEW///CB 09/07 Q1018 NOSIG
17:20
V
10 °C 10 km+ - 230° 230° 5 kt METAR EDDG 251620Z AUTO 23005KT 9999 VCSH FEW028 FEW///CB 10/07 Q1018 NOSIG
16:50
V
10 °C 10 km+ - 230° 230° 5 kt METAR EDDG 251550Z AUTO 23005KT 190V250 9999 -SHRA SCT028 FEW///TCU 10/07 Q1018 NOSIG
16:20
V
10 °C 10 km+ - 220° 220° 5 kt METAR EDDG 251520Z AUTO 22005KT 9999 FEW029 10/07 Q1017 NOSIG
15:50
V
10 °C 10 km+ - 230° 230° 5 kt METAR EDDG 251450Z AUTO 23005KT 200V270 9999 FEW020 10/07 Q1017 NOSIG
15:20
M
11 °C 10 km+ 1,900 ft 230° 230° 7 kt METAR EDDG 251420Z AUTO 23007KT 180V260 9999 BKN019 OVC024 11/07 Q1016 NOSIG
14:50
M
11 °C 10 km+ 1,900 ft 230° 230° 8 kt METAR EDDG 251350Z AUTO 23008KT 190V250 9999 BKN019 11/07 Q1016 NOSIG
14:20
V
11 °C 10 km+ - 230° 230° 8 kt METAR EDDG 251320Z AUTO 23008KT 190V260 9999 SCT020 SCT028 11/07 Q1016 NOSIG
13:50
V
11 °C 10 km+ - 230° 230° 7 kt METAR EDDG 251250Z AUTO 23007KT 190V260 9999 FEW019 11/07 Q1015 NOSIG
13:20
V
11 °C 10 km+ - 230° 230° 8 kt METAR EDDG 251220Z AUTO 23008KT 200V270 9999 FEW018 11/07 Q1015 NOSIG
12:50
V
11 °C 10 km+ - 230° 230° 8 kt METAR EDDG 251150Z AUTO 23008KT 9999 FEW018 11/07 Q1015 NOSIG
12:20
M
10 °C 10 km+ 1,600 ft 230° 230° 8 kt METAR EDDG 251120Z AUTO 23008KT 190V270 9999 BKN016 10/07 Q1014 NOSIG
11:50
M
10 °C 10 km+ 1,400 ft 220° 220° 8 kt METAR EDDG 251050Z AUTO 22008KT 9999 BKN014 BKN034 10/07 Q1014 BECMG SCT015
11:20
M
10 °C 10 km+ 1,200 ft 210° 210° 7 kt METAR EDDG 251020Z AUTO 21007KT 180V240 9999 BKN012 10/07 Q1014 BECMG SCT015
10:50
M
9 °C 10 km+ 1,500 ft 190° 190° 6 kt METAR EDDG 250950Z AUTO 19006KT 160V230 9999 FEW010 BKN015 09/07 Q1014 TEMPO BKN012
10:20
I
8 °C 10 km+ 900 ft 180° 180° 6 kt METAR EDDG 250920Z AUTO 18006KT 150V210 9999 BKN009 BKN022 08/07 Q1013 BECMG SCT015
09:50
V
7 °C 10 km+ - 160° 160° 4 kt METAR EDDG 250850Z AUTO 16004KT 130V200 9999 SCT011 07/07 Q1013 BECMG 22005KT
09:20
V
7 °C 10 km+ - 150° 150° 4 kt METAR EDDG 250820Z AUTO 15004KT 9999 FEW024 07/06 Q1013 BECMG 22005KT
08:50
V
6 °C 10 km+ - 150° 150° 3 kt METAR EDDG 250750Z AUTO 15003KT 9999 -DZ SCT035 06/06 Q1013 NOSIG
08:20
V
6 °C 10 km+ 3,900 ft 130° 130° 3 kt METAR EDDG 250720Z AUTO 13003KT 100V160 9999 BKN039 06/06 Q1012 NOSIG
07:50
V
6 °C 10 km+ 4,400 ft 130° 130° 4 kt METAR EDDG 250650Z AUTO 13004KT 080V170 9999 FEW024 BKN044 06/05 Q1012 NOSIG
07:20
V
6 °C 10 km+ - 140° 140° 3 kt METAR EDDG 250620Z AUTO 14003KT 080V180 CAVOK 06/05 Q1011 NOSIG
06:50
V
6 °C 10 km+ - 140° 140° 4 kt METAR EDDG 250550Z AUTO 14004KT 090V180 9999 -RA SCT027 06/05 Q1011 RESHRA NOSIG
06:20
M
6 °C 7 km 2,700 ft 130° 130° 4 kt METAR EDDG 250520Z AUTO 13004KT 030V160 7000 SHRA FEW022 BKN027 FEW///CB 06/05 Q1011 TEMPO NSW
05:50
M
5 °C 10 km+ 2,700 ft Var Var 4 kt METAR EDDG 250450Z AUTO VRB04KT 9999 -DZ BKN027 05/04 Q1011 TEMPO RA
05:20
V
5 °C 10 km+ - 120° 120° 4 kt METAR EDDG 250420Z AUTO 12004KT 060V170 9999 -RA FEW038 05/04 Q1011 TEMPO RA
04:50
V
5 °C 10 km+ - 120° 120° 3 kt METAR EDDG 250350Z AUTO 12003KT 030V190 CAVOK 05/04 Q1011 TEMPO RA
04:20
V
5 °C 10 km+ - 120° 120° 4 kt METAR EDDG 250320Z AUTO 12004KT 040V180 CAVOK 05/03 Q1011 NOSIG
03:50
V
5 °C 10 km+ - 120° 120° 5 kt METAR EDDG 250250Z AUTO 12005KT 050V190 9999 FEW047 05/03 Q1011 NOSIG
03:20
V
5 °C 10 km+ - 120° 120° 6 kt METAR EDDG 250220Z AUTO 12006KT 060V190 9999 FEW043 05/03 Q1011 NOSIG
02:50
V
4 °C 10 km+ - 120° 120° 5 kt METAR EDDG 250150Z AUTO 12005KT 040V170 9999 FEW040 04/03 Q1011 NOSIG
02:20
V
5 °C 10 km+ - 120° 120° 5 kt METAR EDDG 250120Z AUTO 12005KT 060V170 CAVOK 05/03 Q1011 NOSIG
01:50
V
5 °C 10 km+ - 120° 120° 5 kt METAR EDDG 250050Z AUTO 12005KT 040V160 CAVOK 05/03 Q1011 NOSIG
01:20
V
5 °C 10 km+ - 120° 120° 5 kt METAR EDDG 250020Z AUTO 12005KT 040V180 CAVOK 05/03 Q1011 NOSIG
00:50
V
5 °C 10 km+ - 130° 130° 5 kt METAR EDDG 242350Z AUTO 13005KT 080V160 CAVOK 05/03 Q1012 NOSIG
00:20
V
5 °C 10 km+ - 140° 140° 6 kt METAR EDDG 242320Z AUTO 14006KT 9999 FEW048 05/03 Q1012 NOSIG

November 24, 2022

Time Code Weather Temp. Visibility Ceiling Wind METAR/SPECI
23:50
V
5 °C 10 km+ - 140° 140° 6 kt METAR EDDG 242250Z AUTO 14006KT CAVOK 05/03 Q1012 NOSIG
23:20
V
5 °C 10 km+ - 140° 140° 5 kt METAR EDDG 242220Z AUTO 14005KT 110V170 CAVOK 05/03 Q1012 NOSIG
22:50
V
5 °C 10 km+ - 140° 140° 4 kt METAR EDDG 242150Z AUTO 14004KT 110V170 CAVOK 05/04 Q1012 NOSIG
22:20
V
5 °C 10 km+ - 140° 140° 5 kt METAR EDDG 242120Z AUTO 14005KT CAVOK 05/04 Q1012 NOSIG
21:50
V
5 °C 10 km+ - 160° 160° 5 kt METAR EDDG 242050Z AUTO 16005KT CAVOK 05/04 Q1012 NOSIG
21:20
V
5 °C 10 km+ - 140° 140° 4 kt METAR EDDG 242020Z AUTO 14004KT CAVOK 05/04 Q1012 NOSIG
20:50
V
6 °C 10 km+ - 170° 170° 5 kt METAR EDDG 241950Z AUTO 17005KT CAVOK 06/04 Q1012 NOSIG
20:20
V
5 °C 10 km+ - 150° 150° 4 kt METAR EDDG 241920Z AUTO 15004KT CAVOK 05/04 Q1012 NOSIG
19:50
V
5 °C 10 km+ - 140° 140° 4 kt METAR EDDG 241850Z AUTO 14004KT CAVOK 05/04 Q1012 NOSIG
19:20
V
5 °C 10 km+ - 130° 130° 4 kt METAR EDDG 241820Z AUTO 13004KT 100V160 CAVOK 05/04 Q1012 NOSIG
18:50
V
6 °C 10 km+ - 150° 150° 3 kt METAR EDDG 241750Z AUTO 15003KT CAVOK 06/05 Q1012 NOSIG
18:20
V
6 °C 10 km+ - 150° 150° 4 kt METAR EDDG 241720Z AUTO 15004KT CAVOK 06/05 Q1012 NOSIG
17:50
V
5 °C 10 km+ - 140° 140° 3 kt METAR EDDG 241650Z AUTO 14003KT CAVOK 05/05 Q1012 NOSIG
17:20
V
6 °C 10 km+ - 140° 140° 4 kt METAR EDDG 241620Z AUTO 14004KT CAVOK 06/05 Q1012 NOSIG
16:50
V
7 °C 10 km+ - 160° 160° 3 kt METAR EDDG 241550Z AUTO 16003KT CAVOK 07/06 Q1011 NOSIG
16:20
V
9 °C 10 km+ - 180° 180° 3 kt METAR EDDG 241520Z AUTO 18003KT CAVOK 09/06 Q1011 NOSIG
15:50
V
10 °C 10 km+ - 210° 210° 5 kt METAR EDDG 241450Z AUTO 21005KT 160V230 9999 FEW019 10/06 Q1011 NOSIG
15:20
M
10 °C 10 km+ 1,700 ft 220° 220° 6 kt METAR EDDG 241420Z AUTO 22006KT 190V250 9999 BKN017 10/07 Q1011 NOSIG
14:50
M
10 °C 10 km+ 1,600 ft 240° 240° 6 kt METAR EDDG 241350Z AUTO 24006KT 9999 OVC016 10/07 Q1011 NOSIG
14:20
M
10 °C 10 km+ 1,600 ft 230° 230° 8 kt METAR EDDG 241320Z AUTO 23008KT 200V270 9999 BKN016 10/07 Q1010 NOSIG
13:50
M
9 °C 10 km+ 1,500 ft 230° 230° 9 kt METAR EDDG 241250Z AUTO 23009KT 9999 BKN015 09/07 Q1010 NOSIG
13:20
M
9 °C 10 km+ 1,400 ft 230° 230° 8 kt METAR EDDG 241220Z AUTO 23008KT 190V280 9999 BKN014 09/07 Q1010 BECMG SCT020
12:50
M
9 °C 10 km+ 1,300 ft 230° 230° 8 kt METAR EDDG 241150Z AUTO 23008KT 200V270 9999 OVC013 OVC038 09/07 Q1010 BECMG SCT020
12:20
M
9 °C 10 km+ 1,100 ft 230° 230° 9 kt METAR EDDG 241120Z AUTO 23009KT 200V260 9999 BKN011 BKN036 OVC049 09/07 Q1010 TEMPO SCT011
11:50
V
9 °C 10 km+ 3,300 ft 220° 220° 7 kt METAR EDDG 241050Z AUTO 22007KT 9999 SCT008 BKN033 OVC046 09/07 Q1009 TEMPO BKN008
11:20
V
8 °C 10 km+ 4,700 ft 200° 200° 5 kt METAR EDDG 241020Z AUTO 20005KT 160V240 9999 SCT009 BKN047 08/07 Q1009 NOSIG
10:50
M
8 °C 9 km 2,600 ft 210° 210° 5 kt METAR EDDG 240950Z AUTO 21005KT 170V240 9000 -SHRA FEW011 BKN026 OVC038 FEW///TCU 08/07 Q1009 NOSIG

We and third parties follow your internet behavior on our website with cookies. If you continue, we assume you agree with our cookie policy.